Ask Your Question

osilva's profile - karma

osilva's karma change log

2 0 CMake custom command that depends on message generation ( 2022-01-19 12:59:06 -0600 )

2 0 how can I load neural network with ros-melodic? ( 2022-01-19 12:50:25 -0600 )

2 0 Problem about fusing uwb and odom data with robot_localization ( 2022-01-19 12:49:29 -0600 )

2 0 Should callbacks be simple? ( 2022-01-17 18:42:06 -0600 )

2 0 Should callbacks be simple? ( 2022-01-17 18:42:04 -0600 )

0 -2 Should callbacks be simple? ( 2022-01-17 18:42:02 -0600 )

2 0 How to use ros-noetic-husky? ( 2022-01-17 18:22:27 -0600 )

2 0 Other APIs for ROS ( 2022-01-17 18:20:47 -0600 )

10 0 Where can I find aquatic maps to explore? ( 2022-01-17 09:25:30 -0600 )

0 -15 how can I load neural network with ros-melodic? ( 2022-01-16 23:06:55 -0600 )

15 0 how can I load neural network with ros-melodic? ( 2022-01-16 23:06:54 -0600 )

0 -15 how can I load neural network with ros-melodic? ( 2022-01-16 23:06:53 -0600 )

15 0 how can I load neural network with ros-melodic? ( 2022-01-16 23:06:49 -0600 )

10 0 how can I load neural network with ros-melodic? ( 2022-01-16 23:06:47 -0600 )

2 0 Why won't my node exit ( 2022-01-16 07:18:06 -0600 )

2 0 Gazebo vacuum gripper not rotating gripped model ( 2022-01-15 23:07:55 -0600 )

2 0 ROS cannot install Noetic due to unmet dependencies 20.04 ( 2022-01-15 15:09:27 -0600 )

2 0 IMU drift causing robot to drift in RVIZ ( 2022-01-15 15:08:33 -0600 )

2 0 How to control turning in Navigation Stack ( 2022-01-14 11:53:15 -0600 )

10 0 How to control turning in Navigation Stack ( 2022-01-14 11:42:03 -0600 )

2 0 ros publisher not publishing in debug ( 2022-01-14 08:11:07 -0600 )

2 0 Robot model falls down in Gazebo when setting <transmission> as EffortJointInterface ( 2022-01-14 08:10:09 -0600 )

10 0 Gazebo vacuum gripper not rotating gripped model ( 2022-01-14 01:46:00 -0600 )

2 0 control real-time processes with ROS/ROS2 on multicore system ( 2022-01-13 16:49:35 -0600 )

2 0 Error when building package of calibration_publisher while installing Autoware ( 2022-01-13 16:48:35 -0600 )

2 0 lanelet2 map and pcd map didn't match in map frame ( 2022-01-13 15:36:18 -0600 )

2 0 ROS2/create_subscription: How to pass callback arguments ( 2022-01-13 09:51:10 -0600 )

2 0 How can I adjust the thickness of the lines in rviz/path ( 2022-01-13 09:50:44 -0600 )

15 0 I can't find <dynamic_reconfigure/server.h> in the dynamic_reconfigure package ( 2022-01-13 04:38:47 -0600 )

10 0 I can't find <dynamic_reconfigure/server.h> in the dynamic_reconfigure package ( 2022-01-13 04:30:09 -0600 )

2 0 Converting a XYZ Point cloud to a depth image ( 2022-01-12 19:05:53 -0600 )

2 0 Is it possible to load the parameters file while running? ( 2022-01-10 06:42:13 -0600 )

2 0 Unable to locate package camera_calibration ( 2022-01-10 06:29:38 -0600 )

2 0 rosserial and arduino ( 2022-01-10 06:28:46 -0600 )

2 0 ImportError: No module named Crypto ( 2022-01-10 06:27:47 -0600 )

2 0 How to make a robot arm move in gazebo with ROS 1? ( 2022-01-10 06:15:31 -0600 )

2 0 How to replace Gazebo physics with Mujoco ( 2022-01-10 06:13:52 -0600 )

0 -15 Get cost value of a point in local costmap ( 2022-01-10 05:40:13 -0600 )

10 0 How to send a 2D Nav goal without the button "2D Nav Goal" in RVIZ? ( 2022-01-10 01:51:21 -0600 )

15 0 Trace terminal output to program ( 2022-01-08 20:13:31 -0600 )

2 0 Recommended simulator for drone project ( 2022-01-08 12:32:16 -0600 )

2 0 what's the difference between point cloud and octomap. Where do we use Octomap instead of Pointcloud? ( 2022-01-08 12:31:19 -0600 )

2 0 Wait for subscriber callback to receive message - best practice ( 2022-01-08 10:43:26 -0600 )

2 0 robot_localization perform worst just adding magnetometer to imu_filter_madgwick ( 2022-01-08 10:41:34 -0600 )

2 0 Colcon build gives Qt5quick error ( 2022-01-08 10:40:48 -0600 )

15 0 Get cost value of a point in local costmap ( 2022-01-06 22:39:44 -0600 )

0 -15 Get cost value of a point in local costmap ( 2022-01-06 22:39:41 -0600 )

2 0 ROS1 Noetic does not run rqt_graph on windows 10 ( 2022-01-06 16:34:12 -0600 )

2 0 Get cost value of a point in local costmap ( 2022-01-06 16:31:19 -0600 )

15 0 Working with Gazebo9.x instead of Gazebo7 with ros kinetic ( 2022-01-04 12:57:28 -0600 )

0 -10 Working with Gazebo9.x instead of Gazebo7 with ros kinetic ( 2022-01-04 12:57:27 -0600 )

10 0 Working with Gazebo9.x instead of Gazebo7 with ros kinetic ( 2022-01-04 12:57:24 -0600 )

10 0 Where can I find aquatic maps to explore? ( 2022-01-04 10:12:39 -0600 )

0 -10 Where can I find aquatic maps to explore? ( 2022-01-04 10:12:36 -0600 )

10 0 Where can I find aquatic maps to explore? ( 2022-01-03 13:44:47 -0600 )

15 0 Where can I find aquatic maps to explore? ( 2022-01-03 13:44:45 -0600 )

2 0 How to implement track/following algorythm in ROS? ( 2022-01-03 12:07:56 -0600 )

10 0 How to implement track/following algorythm in ROS? ( 2022-01-03 11:29:13 -0600 )

10 0 Get cost value of a point in local costmap ( 2022-01-03 04:30:01 -0600 )

2 0 How to connect ROS with my Parallax microcontroller? ( 2022-01-02 21:40:34 -0600 )

2 0 How ROS2 communication is done between two nodes over DDS? ( 2022-01-02 15:16:00 -0600 )

15 0 How can I restart move_base server? ( 2022-01-02 10:22:13 -0600 )

10 0 How can I restart move_base server? ( 2022-01-02 10:15:52 -0600 )

0 -2 Is there any "official" rust ros lib? ( 2022-01-02 08:39:58 -0600 )

2 0 Is there any "official" rust ros lib? ( 2022-01-02 08:39:39 -0600 )

10 0 why do we need the (pid) controllers in ros_control? ( 2022-01-02 07:00:01 -0600 )

0 -10 why do we need the (pid) controllers in ros_control? ( 2022-01-02 06:59:59 -0600 )

15 0 why do we need the (pid) controllers in ros_control? ( 2022-01-02 06:59:55 -0600 )

0 -15 why do we need the (pid) controllers in ros_control? ( 2022-01-02 06:59:51 -0600 )

10 0 why do we need the (pid) controllers in ros_control? ( 2022-01-02 06:29:46 -0600 )

15 0 why do we need the (pid) controllers in ros_control? ( 2022-01-02 06:29:42 -0600 )

2 0 2D occupancy grid of a Gazebo world ( 2022-01-01 18:28:50 -0600 )

2 0 Noetic python raw Image publisher (from video) ( 2022-01-01 18:20:49 -0600 )

2 0 What are the information represented by echo the topic of camera_info and image_raw? ( 2022-01-01 11:20:56 -0600 )

2 0 dyld: Library not loaded: QtWidgets ( 2021-12-31 22:23:21 -0600 )

2 0 How to assign an image_message to a transformation ( 2021-12-31 19:10:26 -0600 )

2 0 Delta PLC connection with ROS ( 2021-12-31 09:06:11 -0600 )

2 0 For frame [velodyne]: Frame [velodyne] does not exist ( 2021-12-31 09:05:14 -0600 )

10 0 Is there any "official" rust ros lib? ( 2021-12-31 07:13:41 -0600 )

2 0 How to learn ROS2 properly ( 2021-12-30 16:20:46 -0600 )

2 0 Invoking "make -j4 -l4" failed during catkin_make ( 2021-12-30 14:30:37 -0600 )

2 0 Generating 3D map from Lidar data ( 2021-12-30 10:51:00 -0600 )

2 0 URDF model spawns with no link ( 2021-12-30 10:44:06 -0600 )

2 0 Make global path update correctly when it is invalid ( 2021-12-30 10:30:32 -0600 )

10 0 Error husky simulation in ros noetic ( 2021-12-30 09:12:50 -0600 )

2 0 [ROS2 Windows] Running C++ Node By Direct DLL/Lib Reference ( 2021-12-30 08:13:25 -0600 )

2 0 ros2 merging maps for multi-robot exploration ( 2021-12-30 04:37:44 -0600 )

2 0 rqt_console doesn't display all messages ( 2021-12-30 04:35:28 -0600 )

2 0 lifecycle_msgs/msg/state.hpp is missing by build ROS2 UR_Robot_DRIVER ( 2021-12-29 20:49:16 -0600 )

2 0 Get node name within DDS network ( 2021-12-29 11:56:49 -0600 )

2 0 [Autoware.Auto] GNSS conversion node not starting ( 2021-12-29 11:54:50 -0600 )

2 0 How to use the position value published by joint state publisher in another node? ( 2021-12-29 11:51:26 -0600 )

2 0 How do you use the differential_drive package ( 2021-12-29 11:50:35 -0600 )

2 0 Passing arguments from .launch file to .yaml file ( 2021-12-29 08:39:25 -0600 )

2 0 Turtlebot2/RGBDSLAM/kinetic ( 2021-12-29 08:38:50 -0600 )

2 0 melodic "CMake Error at /usr/src/googletest/googletest/cmake/internal_utils.cmake:149" - Invoking "make cmake_check_build_system" failed ( 2021-12-29 08:37:50 -0600 )

0 -2 How can i acess my parameters from the dynamic reconfigure server ? ( 2021-12-29 08:24:23 -0600 )

2 0 How can i acess my parameters from the dynamic reconfigure server ? ( 2021-12-29 08:24:23 -0600 )

0 -2 How can i acess my parameters from the dynamic reconfigure server ? ( 2021-12-29 08:24:20 -0600 )

2 0 How can i acess my parameters from the dynamic reconfigure server ? ( 2021-12-29 08:24:19 -0600 )